sensor_id;sensor_type;location;lat;lon;timestamp;temperature;humidity
5218;DHT22;26539;51.064;6.346;2023-12-20T00:01:47;8.80;70.90
5218;DHT22;26539;51.064;6.346;2023-12-20T00:04:12;8.80;69.70
5218;DHT22;26539;51.064;6.346;2023-12-20T00:06:38;8.80;67.00
5218;DHT22;26539;51.064;6.346;2023-12-20T00:09:03;8.80;58.90
5218;DHT22;26539;51.064;6.346;2023-12-20T00:11:29;8.80;55.60
5218;DHT22;26539;51.064;6.346;2023-12-20T00:13:54;8.70;51.70
5218;DHT22;26539;51.064;6.346;2023-12-20T00:16:20;8.70;51.60
5218;DHT22;26539;51.064;6.346;2023-12-20T00:18:45;8.60;51.20
5218;DHT22;26539;51.064;6.346;2023-12-20T00:21:11;8.60;50.10
5218;DHT22;26539;51.064;6.346;2023-12-20T00:23:36;8.60;49.30
5218;DHT22;26539;51.064;6.346;2023-12-20T00:26:02;8.50;49.80
5218;DHT22;26539;51.064;6.346;2023-12-20T00:28:28;8.50;52.70
5218;DHT22;26539;51.064;6.346;2023-12-20T00:30:53;8.50;53.10
5218;DHT22;26539;51.064;6.346;2023-12-20T00:33:19;8.50;51.80
5218;DHT22;26539;51.064;6.346;2023-12-20T00:35:44;8.50;52.20
5218;DHT22;26539;51.064;6.346;2023-12-20T00:38:10;8.50;51.30
5218;DHT22;26539;51.064;6.346;2023-12-20T00:40:36;8.50;47.90
5218;DHT22;26539;51.064;6.346;2023-12-20T00:43:02;8.50;47.00
5218;DHT22;26539;51.064;6.346;2023-12-20T00:45:27;8.50;47.20
5218;DHT22;26539;51.064;6.346;2023-12-20T00:47:53;8.60;51.10
5218;DHT22;26539;51.064;6.346;2023-12-20T00:50:18;8.50;48.10
5218;DHT22;26539;51.064;6.346;2023-12-20T00:52:44;8.50;45.00
5218;DHT22;26539;51.064;6.346;2023-12-20T00:55:09;8.60;38.50
5218;DHT22;26539;51.064;6.346;2023-12-20T00:57:35;8.50;29.50
5218;DHT22;26539;51.064;6.346;2023-12-20T01:00:00;8.60;26.40
5218;DHT22;26539;51.064;6.346;2023-12-20T01:02:26;8.40;1.00
5218;DHT22;26539;51.064;6.346;2023-12-20T01:04:51;8.40;1.00
5218;DHT22;26539;51.064;6.346;2023-12-20T01:07:17;8.30;1.00
5218;DHT22;26539;51.064;6.346;2023-12-20T01:09:43;8.20;1.00
5218;DHT22;26539;51.064;6.346;2023-12-20T01:12:08;8.10;1.00
5218;DHT22;26539;51.064;6.346;2023-12-20T01:14:34;8.10;1.00
5218;DHT22;26539;51.064;6.346;2023-12-20T01:16:59;8.00;1.00
5218;DHT22;26539;51.064;6.346;2023-12-20T01:19:25;7.90;1.00
5218;DHT22;26539;51.064;6.346;2023-12-20T01:21:50;7.90;1.00
5218;DHT22;26539;51.064;6.346;2023-12-20T01:24:16;7.80;1.00
5218;DHT22;26539;51.064;6.346;2023-12-20T01:26:41;7.80;1.00
5218;DHT22;26539;51.064;6.346;2023-12-20T01:29:07;7.80;1.00
5218;DHT22;26539;51.064;6.346;2023-12-20T01:31:33;7.80;1.00
5218;DHT22;26539;51.064;6.346;2023-12-20T01:33:58;7.80;1.00
5218;DHT22;26539;51.064;6.346;2023-12-20T01:36:24;7.80;1.00
5218;DHT22;26539;51.064;6.346;2023-12-20T01:38:49;7.80;1.00
5218;DHT22;26539;51.064;6.346;2023-12-20T01:41:15;7.70;1.00
5218;DHT22;26539;51.064;6.346;2023-12-20T01:43:40;7.70;1.00
5218;DHT22;26539;51.064;6.346;2023-12-20T01:46:06;7.60;1.00
5218;DHT22;26539;51.064;6.346;2023-12-20T01:48:32;7.60;1.00
5218;DHT22;26539;51.064;6.346;2023-12-20T01:50:59;7.50;1.00
5218;DHT22;26539;51.064;6.346;2023-12-20T01:53:27;7.40;1.00
5218;DHT22;26539;51.064;6.346;2023-12-20T01:55:55;7.40;1.00
5218;DHT22;26539;51.064;6.346;2023-12-20T01:58:22;7.30;1.00
5218;DHT22;26539;51.064;6.346;2023-12-20T02:00:48;7.30;1.00
5218;DHT22;26539;51.064;6.346;2023-12-20T02:03:14;7.20;1.00
5218;DHT22;26539;51.064;6.346;2023-12-20T02:05:39;7.20;1.00
5218;DHT22;26539;51.064;6.346;2023-12-20T02:08:06;7.20;1.00
5218;DHT22;26539;51.064;6.346;2023-12-20T02:10:32;7.30;1.00
5218;DHT22;26539;51.064;6.346;2023-12-20T02:12:58;7.30;1.00
5218;DHT22;26539;51.064;6.346;2023-12-20T02:15:23;7.30;1.00
5218;DHT22;26539;51.064;6.346;2023-12-20T02:17:49;7.30;1.00
5218;DHT22;26539;51.064;6.346;2023-12-20T02:20:15;7.30;1.00
5218;DHT22;26539;51.064;6.346;2023-12-20T02:22:41;7.30;1.00
5218;DHT22;26539;51.064;6.346;2023-12-20T02:25:07;7.40;1.00
5218;DHT22;26539;51.064;6.346;2023-12-20T02:27:32;7.40;1.00
5218;DHT22;26539;51.064;6.346;2023-12-20T02:29:58;7.40;1.00
5218;DHT22;26539;51.064;6.346;2023-12-20T02:32:25;7.40;1.00
5218;DHT22;26539;51.064;6.346;2023-12-20T02:34:54;7.40;1.00
5218;DHT22;26539;51.064;6.346;2023-12-20T02:37:19;7.40;1.00
5218;DHT22;26539;51.064;6.346;2023-12-20T02:39:45;7.40;1.00
5218;DHT22;26539;51.064;6.346;2023-12-20T02:42:10;7.40;1.00
5218;DHT22;26539;51.064;6.346;2023-12-20T02:44:36;7.40;1.00
5218;DHT22;26539;51.064;6.346;2023-12-20T02:47:02;7.40;1.00
5218;DHT22;26539;51.064;6.346;2023-12-20T02:49:27;7.40;1.00
5218;DHT22;26539;51.064;6.346;2023-12-20T02:51:53;7.40;1.00
5218;DHT22;26539;51.064;6.346;2023-12-20T02:54:18;7.40;1.00
5218;DHT22;26539;51.064;6.346;2023-12-20T02:56:44;7.40;1.00
5218;DHT22;26539;51.064;6.346;2023-12-20T02:59:09;7.30;1.00
5218;DHT22;26539;51.064;6.346;2023-12-20T03:01:35;7.30;1.00
5218;DHT22;26539;51.064;6.346;2023-12-20T03:04:01;7.20;1.00
5218;DHT22;26539;51.064;6.346;2023-12-20T03:06:27;7.20;1.00
5218;DHT22;26539;51.064;6.346;2023-12-20T03:08:52;7.20;1.00
5218;DHT22;26539;51.064;6.346;2023-12-20T03:11:18;7.10;1.00
5218;DHT22;26539;51.064;6.346;2023-12-20T03:13:43;7.10;1.00
5218;DHT22;26539;51.064;6.346;2023-12-20T03:16:09;7.10;1.00
5218;DHT22;26539;51.064;6.346;2023-12-20T03:18:35;7.10;1.00
5218;DHT22;26539;51.064;6.346;2023-12-20T03:21:01;7.10;1.00
5218;DHT22;26539;51.064;6.346;2023-12-20T03:23:26;7.10;1.00
5218;DHT22;26539;51.064;6.346;2023-12-20T03:25:52;7.10;1.00
5218;DHT22;26539;51.064;6.346;2023-12-20T03:28:18;7.10;1.00
5218;DHT22;26539;51.064;6.346;2023-12-20T03:30:44;7.10;1.00
5218;DHT22;26539;51.064;6.346;2023-12-20T03:33:10;7.10;1.00
5218;DHT22;26539;51.064;6.346;2023-12-20T03:35:35;7.10;1.00
5218;DHT22;26539;51.064;6.346;2023-12-20T03:38:01;7.10;1.00
5218;DHT22;26539;51.064;6.346;2023-12-20T03:40:26;7.10;1.00
5218;DHT22;26539;51.064;6.346;2023-12-20T03:42:52;7.00;1.00
5218;DHT22;26539;51.064;6.346;2023-12-20T03:45:17;7.00;1.00
5218;DHT22;26539;51.064;6.346;2023-12-20T03:47:43;6.90;1.00
5218;DHT22;26539;51.064;6.346;2023-12-20T03:50:08;6.80;1.00
5218;DHT22;26539;51.064;6.346;2023-12-20T03:52:34;6.80;1.00
5218;DHT22;26539;51.064;6.346;2023-12-20T03:54:59;6.80;1.00
5218;DHT22;26539;51.064;6.346;2023-12-20T03:57:25;6.70;1.00
5218;DHT22;26539;51.064;6.346;2023-12-20T03:59:50;6.70;1.00
5218;DHT22;26539;51.064;6.346;2023-12-20T04:02:16;6.80;1.00
5218;DHT22;26539;51.064;6.346;2023-12-20T04:04:43;6.80;1.00
5218;DHT22;26539;51.064;6.346;2023-12-20T04:07:08;6.90;1.00
5218;DHT22;26539;51.064;6.346;2023-12-20T04:09:34;6.90;1.00
5218;DHT22;26539;51.064;6.346;2023-12-20T04:12:00;6.90;1.00
5218;DHT22;26539;51.064;6.346;2023-12-20T04:14:25;6.80;1.00
5218;DHT22;26539;51.064;6.346;2023-12-20T04:16:51;6.80;1.00
5218;DHT22;26539;51.064;6.346;2023-12-20T04:19:16;6.70;1.00
5218;DHT22;26539;51.064;6.346;2023-12-20T04:21:41;6.70;1.00
5218;DHT22;26539;51.064;6.346;2023-12-20T04:24:07;6.70;1.00
5218;DHT22;26539;51.064;6.346;2023-12-20T04:26:33;6.60;1.00
5218;DHT22;26539;51.064;6.346;2023-12-20T04:28:59;6.60;1.00
5218;DHT22;26539;51.064;6.346;2023-12-20T04:31:24;6.60;1.00
5218;DHT22;26539;51.064;6.346;2023-12-20T04:33:50;6.60;1.00
5218;DHT22;26539;51.064;6.346;2023-12-20T04:36:15;6.60;1.00
5218;DHT22;26539;51.064;6.346;2023-12-20T04:38:41;6.60;1.00
5218;DHT22;26539;51.064;6.346;2023-12-20T04:41:06;6.60;1.00
5218;DHT22;26539;51.064;6.346;2023-12-20T04:43:32;6.60;1.00
5218;DHT22;26539;51.064;6.346;2023-12-20T04:45:57;6.50;1.00
5218;DHT22;26539;51.064;6.346;2023-12-20T04:48:23;6.60;1.00
5218;DHT22;26539;51.064;6.346;2023-12-20T04:50:48;6.60;1.00
5218;DHT22;26539;51.064;6.346;2023-12-20T04:53:14;6.60;1.00
5218;DHT22;26539;51.064;6.346;2023-12-20T04:55:39;6.60;1.00
5218;DHT22;26539;51.064;6.346;2023-12-20T04:58:05;6.60;1.00
5218;DHT22;26539;51.064;6.346;2023-12-20T05:00:30;6.60;1.00
5218;DHT22;26539;51.064;6.346;2023-12-20T05:02:56;6.60;1.00
5218;DHT22;26539;51.064;6.346;2023-12-20T05:05:22;6.60;1.00
5218;DHT22;26539;51.064;6.346;2023-12-20T05:07:47;6.60;1.00
5218;DHT22;26539;51.064;6.346;2023-12-20T05:10:13;6.60;1.00
5218;DHT22;26539;51.064;6.346;2023-12-20T05:12:38;6.60;1.00
5218;DHT22;26539;51.064;6.346;2023-12-20T05:15:06;6.60;1.00
5218;DHT22;26539;51.064;6.346;2023-12-20T05:17:31;6.60;1.00
5218;DHT22;26539;51.064;6.346;2023-12-20T05:19:57;6.60;1.00
5218;DHT22;26539;51.064;6.346;2023-12-20T05:22:22;6.60;1.00
5218;DHT22;26539;51.064;6.346;2023-12-20T05:24:48;6.70;1.00
5218;DHT22;26539;51.064;6.346;2023-12-20T05:27:13;6.70;1.00
5218;DHT22;26539;51.064;6.346;2023-12-20T05:29:39;6.70;1.00
5218;DHT22;26539;51.064;6.346;2023-12-20T05:32:04;6.70;1.00
5218;DHT22;26539;51.064;6.346;2023-12-20T05:34:31;6.80;1.00
5218;DHT22;26539;51.064;6.346;2023-12-20T05:36:57;6.80;1.00
5218;DHT22;26539;51.064;6.346;2023-12-20T05:39:23;6.80;1.00
5218;DHT22;26539;51.064;6.346;2023-12-20T05:41:48;6.80;1.00
5218;DHT22;26539;51.064;6.346;2023-12-20T05:44:14;6.80;1.00
5218;DHT22;26539;51.064;6.346;2023-12-20T05:46:39;6.90;1.00
5218;DHT22;26539;51.064;6.346;2023-12-20T05:49:05;6.90;1.00
5218;DHT22;26539;51.064;6.346;2023-12-20T05:51:31;6.90;1.00
5218;DHT22;26539;51.064;6.346;2023-12-20T05:53:56;6.90;1.00
5218;DHT22;26539;51.064;6.346;2023-12-20T05:56:22;6.90;1.00
5218;DHT22;26539;51.064;6.346;2023-12-20T05:58:47;6.90;1.00
5218;DHT22;26539;51.064;6.346;2023-12-20T06:01:14;6.90;1.00
5218;DHT22;26539;51.064;6.346;2023-12-20T06:03:43;7.00;1.00
5218;DHT22;26539;51.064;6.346;2023-12-20T06:06:09;7.00;1.00
5218;DHT22;26539;51.064;6.346;2023-12-20T06:08:35;7.00;1.00
5218;DHT22;26539;51.064;6.346;2023-12-20T06:11:01;7.00;1.00
5218;DHT22;26539;51.064;6.346;2023-12-20T06:13:26;7.00;1.00
5218;DHT22;26539;51.064;6.346;2023-12-20T06:15:54;7.10;1.00
5218;DHT22;26539;51.064;6.346;2023-12-20T06:18:19;7.10;1.00
5218;DHT22;26539;51.064;6.346;2023-12-20T06:20:45;7.10;1.00
5218;DHT22;26539;51.064;6.346;2023-12-20T06:23:10;7.10;1.00
5218;DHT22;26539;51.064;6.346;2023-12-20T06:25:36;7.10;1.00
5218;DHT22;26539;51.064;6.346;2023-12-20T06:28:01;7.10;1.00
5218;DHT22;26539;51.064;6.346;2023-12-20T06:30:27;7.10;1.00
5218;DHT22;26539;51.064;6.346;2023-12-20T06:32:53;7.10;1.00
5218;DHT22;26539;51.064;6.346;2023-12-20T06:35:19;7.10;1.00
5218;DHT22;26539;51.064;6.346;2023-12-20T06:37:45;7.10;1.00
5218;DHT22;26539;51.064;6.346;2023-12-20T06:40:11;7.10;1.00
5218;DHT22;26539;51.064;6.346;2023-12-20T06:42:36;7.10;1.00
5218;DHT22;26539;51.064;6.346;2023-12-20T06:45:03;7.10;1.00
5218;DHT22;26539;51.064;6.346;2023-12-20T06:47:28;7.10;1.00
5218;DHT22;26539;51.064;6.346;2023-12-20T06:49:54;7.10;1.00
5218;DHT22;26539;51.064;6.346;2023-12-20T06:52:19;7.10;1.00
5218;DHT22;26539;51.064;6.346;2023-12-20T06:54:45;7.10;1.00
5218;DHT22;26539;51.064;6.346;2023-12-20T06:57:10;7.10;1.00
5218;DHT22;26539;51.064;6.346;2023-12-20T06:59:40;7.10;1.00
5218;DHT22;26539;51.064;6.346;2023-12-20T07:02:06;7.10;1.00
5218;DHT22;26539;51.064;6.346;2023-12-20T07:04:31;7.10;1.00
5218;DHT22;26539;51.064;6.346;2023-12-20T07:06:57;7.10;1.00
5218;DHT22;26539;51.064;6.346;2023-12-20T07:09:25;7.10;1.00
5218;DHT22;26539;51.064;6.346;2023-12-20T07:11:51;7.10;1.00
5218;DHT22;26539;51.064;6.346;2023-12-20T07:14:17;7.10;1.00
5218;DHT22;26539;51.064;6.346;2023-12-20T07:16:42;7.10;1.00
5218;DHT22;26539;51.064;6.346;2023-12-20T07:19:08;7.10;1.00
5218;DHT22;26539;51.064;6.346;2023-12-20T07:21:33;7.10;1.00
5218;DHT22;26539;51.064;6.346;2023-12-20T07:23:59;7.10;1.00
5218;DHT22;26539;51.064;6.346;2023-12-20T07:26:24;7.00;1.00
5218;DHT22;26539;51.064;6.346;2023-12-20T07:28:50;6.90;1.00
5218;DHT22;26539;51.064;6.346;2023-12-20T07:31:16;6.90;1.00
5218;DHT22;26539;51.064;6.346;2023-12-20T07:33:42;6.90;1.00
5218;DHT22;26539;51.064;6.346;2023-12-20T07:36:07;6.90;1.00
5218;DHT22;26539;51.064;6.346;2023-12-20T07:38:33;7.00;1.00
5218;DHT22;26539;51.064;6.346;2023-12-20T07:40:59;7.00;1.00
5218;DHT22;26539;51.064;6.346;2023-12-20T07:43:25;7.00;1.00
5218;DHT22;26539;51.064;6.346;2023-12-20T07:45:50;7.00;1.00
5218;DHT22;26539;51.064;6.346;2023-12-20T07:48:16;6.90;1.00
5218;DHT22;26539;51.064;6.346;2023-12-20T07:50:41;6.90;1.00
5218;DHT22;26539;51.064;6.346;2023-12-20T07:53:07;6.90;1.00
5218;DHT22;26539;51.064;6.346;2023-12-20T07:55:33;6.90;1.00
5218;DHT22;26539;51.064;6.346;2023-12-20T07:57:59;6.90;1.00
5218;DHT22;26539;51.064;6.346;2023-12-20T08:00:25;6.90;1.00
5218;DHT22;26539;51.064;6.346;2023-12-20T08:02:51;7.00;1.00
5218;DHT22;26539;51.064;6.346;2023-12-20T08:05:17;7.00;1.00
5218;DHT22;26539;51.064;6.346;2023-12-20T08:07:42;7.00;1.00
5218;DHT22;26539;51.064;6.346;2023-12-20T08:10:08;7.00;1.00
5218;DHT22;26539;51.064;6.346;2023-12-20T08:12:33;7.10;1.00
5218;DHT22;26539;51.064;6.346;2023-12-20T08:15:00;7.10;1.00
5218;DHT22;26539;51.064;6.346;2023-12-20T08:17:25;7.30;1.00
5218;DHT22;26539;51.064;6.346;2023-12-20T08:19:51;7.50;1.00
5218;DHT22;26539;51.064;6.346;2023-12-20T08:22:17;7.70;99.90
5218;DHT22;26539;51.064;6.346;2023-12-20T08:24:42;7.70;99.90
5218;DHT22;26539;51.064;6.346;2023-12-20T08:27:08;7.80;99.90
5218;DHT22;26539;51.064;6.346;2023-12-20T08:29:35;7.90;99.90
5218;DHT22;26539;51.064;6.346;2023-12-20T08:32:00;8.20;4.70
5218;DHT22;26539;51.064;6.346;2023-12-20T08:34:26;8.40;99.90
5218;DHT22;26539;51.064;6.346;2023-12-20T08:36:52;8.60;99.90
5218;DHT22;26539;51.064;6.346;2023-12-20T08:39:17;8.60;1.00
5218;DHT22;26539;51.064;6.346;2023-12-20T08:41:43;8.80;1.00
5218;DHT22;26539;51.064;6.346;2023-12-20T08:44:09;8.90;73.90
5218;DHT22;26539;51.064;6.346;2023-12-20T08:46:35;9.10;1.00
5218;DHT22;26539;51.064;6.346;2023-12-20T08:49:01;9.40;1.00
5218;DHT22;26539;51.064;6.346;2023-12-20T08:51:26;9.60;1.00
5218;DHT22;26539;51.064;6.346;2023-12-20T08:53:53;9.50;99.90
5218;DHT22;26539;51.064;6.346;2023-12-20T08:56:18;9.30;1.00
5218;DHT22;26539;51.064;6.346;2023-12-20T08:58:45;9.10;1.00
5218;DHT22;26539;51.064;6.346;2023-12-20T09:01:11;8.90;1.00
5218;DHT22;26539;51.064;6.346;2023-12-20T09:03:36;8.90;61.80
5218;DHT22;26539;51.064;6.346;2023-12-20T09:06:02;8.70;1.00
5218;DHT22;26539;51.064;6.346;2023-12-20T09:08:27;8.60;1.00
5218;DHT22;26539;51.064;6.346;2023-12-20T09:10:53;8.40;1.00
5218;DHT22;26539;51.064;6.346;2023-12-20T09:13:18;8.30;99.90
5218;DHT22;26539;51.064;6.346;2023-12-20T09:15:44;8.20;99.90
5218;DHT22;26539;51.064;6.346;2023-12-20T09:18:09;8.20;99.90
5218;DHT22;26539;51.064;6.346;2023-12-20T09:20:35;8.10;1.00
5218;DHT22;26539;51.064;6.346;2023-12-20T09:23:01;8.00;1.00
5218;DHT22;26539;51.064;6.346;2023-12-20T09:25:26;7.90;18.80
5218;DHT22;26539;51.064;6.346;2023-12-20T09:27:52;7.80;96.50
5218;DHT22;26539;51.064;6.346;2023-12-20T09:30:18;7.90;99.90
5218;DHT22;26539;51.064;6.346;2023-12-20T09:32:45;7.90;99.90
5218;DHT22;26539;51.064;6.346;2023-12-20T09:35:10;7.90;99.90
5218;DHT22;26539;51.064;6.346;2023-12-20T09:37:36;8.00;99.90
5218;DHT22;26539;51.064;6.346;2023-12-20T09:40:02;8.10;99.90
5218;DHT22;26539;51.064;6.346;2023-12-20T09:45:20;8.40;99.90
5218;DHT22;26539;51.064;6.346;2023-12-20T09:47:48;8.50;2.30
5218;DHT22;26539;51.064;6.346;2023-12-20T09:50:14;8.80;99.90
5218;DHT22;26539;51.064;6.346;2023-12-20T09:52:40;9.20;1.00
5218;DHT22;26539;51.064;6.346;2023-12-20T09:55:07;9.20;44.40
5218;DHT22;26539;51.064;6.346;2023-12-20T09:57:33;9.10;99.90
5218;DHT22;26539;51.064;6.346;2023-12-20T09:59:59;9.00;1.00
5218;DHT22;26539;51.064;6.346;2023-12-20T10:02:25;8.80;99.90
5218;DHT22;26539;51.064;6.346;2023-12-20T10:04:55;8.80;99.90
5218;DHT22;26539;51.064;6.346;2023-12-20T10:07:21;8.80;93.20
5218;DHT22;26539;51.064;6.346;2023-12-20T10:09:48;8.70;68.20
5218;DHT22;26539;51.064;6.346;2023-12-20T10:12:14;8.70;99.90
5218;DHT22;26539;51.064;6.346;2023-12-20T10:14:39;8.60;1.00
5218;DHT22;26539;51.064;6.346;2023-12-20T10:17:05;8.60;21.60
5218;DHT22;26539;51.064;6.346;2023-12-20T10:19:31;8.60;1.00
5218;DHT22;26539;51.064;6.346;2023-12-20T10:22:00;8.60;1.00
5218;DHT22;26539;51.064;6.346;2023-12-20T10:24:29;8.50;43.90
5218;DHT22;26539;51.064;6.346;2023-12-20T10:27:08;8.40;99.90
5218;DHT22;26539;51.064;6.346;2023-12-20T10:29:37;8.30;1.00
5218;DHT22;26539;51.064;6.346;2023-12-20T10:32:26;8.30;1.00
5218;DHT22;26539;51.064;6.346;2023-12-20T10:34:53;8.20;99.90
5218;DHT22;26539;51.064;6.346;2023-12-20T10:37:18;8.20;99.90
5218;DHT22;26539;51.064;6.346;2023-12-20T10:39:49;8.20;1.00
5218;DHT22;26539;51.064;6.346;2023-12-20T10:42:16;8.10;1.00
5218;DHT22;26539;51.064;6.346;2023-12-20T10:44:42;8.10;1.00
5218;DHT22;26539;51.064;6.346;2023-12-20T10:47:09;8.10;1.00
5218;DHT22;26539;51.064;6.346;2023-12-20T10:49:37;8.20;1.00
5218;DHT22;26539;51.064;6.346;2023-12-20T10:52:05;8.30;1.00
5218;DHT22;26539;51.064;6.346;2023-12-20T10:54:32;8.40;1.00
5218;DHT22;26539;51.064;6.346;2023-12-20T10:56:58;8.40;99.90
5218;DHT22;26539;51.064;6.346;2023-12-20T10:59:25;8.40;99.90
5218;DHT22;26539;51.064;6.346;2023-12-20T11:01:54;8.40;99.90
5218;DHT22;26539;51.064;6.346;2023-12-20T11:04:31;8.40;99.90
5218;DHT22;26539;51.064;6.346;2023-12-20T11:09:42;8.60;99.90
5218;DHT22;26539;51.064;6.346;2023-12-20T11:12:16;8.60;1.00
5218;DHT22;26539;51.064;6.346;2023-12-20T11:14:48;8.50;44.70
5218;DHT22;26539;51.064;6.346;2023-12-20T11:17:14;8.50;19.50
5218;DHT22;26539;51.064;6.346;2023-12-20T11:22:32;8.50;99.90
5218;DHT22;26539;51.064;6.346;2023-12-20T11:25:09;8.50;99.90
5218;DHT22;26539;51.064;6.346;2023-12-20T11:27:41;8.40;99.90
5218;DHT22;26539;51.064;6.346;2023-12-20T11:30:10;8.40;99.90
5218;DHT22;26539;51.064;6.346;2023-12-20T11:32:37;8.30;1.00
5218;DHT22;26539;51.064;6.346;2023-12-20T11:37:38;8.30;1.00
5218;DHT22;26539;51.064;6.346;2023-12-20T11:40:11;8.40;1.00
5218;DHT22;26539;51.064;6.346;2023-12-20T11:42:41;8.40;1.00
5218;DHT22;26539;51.064;6.346;2023-12-20T11:45:10;8.40;1.00
5218;DHT22;26539;51.064;6.346;2023-12-20T11:47:36;8.40;1.00
5218;DHT22;26539;51.064;6.346;2023-12-20T11:50:01;8.40;1.00
5218;DHT22;26539;51.064;6.346;2023-12-20T11:52:29;8.40;1.00
5218;DHT22;26539;51.064;6.346;2023-12-20T11:54:55;8.40;1.00
5218;DHT22;26539;51.064;6.346;2023-12-20T11:57:21;8.40;1.00
5218;DHT22;26539;51.064;6.346;2023-12-20T11:59:46;8.40;1.00
5218;DHT22;26539;51.064;6.346;2023-12-20T12:02:12;8.40;1.00
5218;DHT22;26539;51.064;6.346;2023-12-20T12:04:38;8.40;1.00
5218;DHT22;26539;51.064;6.346;2023-12-20T12:07:04;8.40;1.00
5218;DHT22;26539;51.064;6.346;2023-12-20T12:09:29;8.40;1.00
5218;DHT22;26539;51.064;6.346;2023-12-20T12:11:55;8.40;1.00
5218;DHT22;26539;51.064;6.346;2023-12-20T12:14:20;8.40;1.00
5218;DHT22;26539;51.064;6.346;2023-12-20T12:16:46;8.40;1.00
5218;DHT22;26539;51.064;6.346;2023-12-20T12:19:22;8.50;1.00
5218;DHT22;26539;51.064;6.346;2023-12-20T12:21:49;8.40;1.00
5218;DHT22;26539;51.064;6.346;2023-12-20T12:24:14;8.40;1.00
5218;DHT22;26539;51.064;6.346;2023-12-20T12:26:40;8.40;23.40
5218;DHT22;26539;51.064;6.346;2023-12-20T12:29:08;8.40;83.00
5218;DHT22;26539;51.064;6.346;2023-12-20T12:31:35;8.30;99.90
5218;DHT22;26539;51.064;6.346;2023-12-20T12:34:01;8.40;99.90
5218;DHT22;26539;51.064;6.346;2023-12-20T12:36:28;8.40;99.90
5218;DHT22;26539;51.064;6.346;2023-12-20T12:38:56;8.40;99.90
5218;DHT22;26539;51.064;6.346;2023-12-20T12:41:23;8.40;99.90
5218;DHT22;26539;51.064;6.346;2023-12-20T12:43:48;8.40;99.90
5218;DHT22;26539;51.064;6.346;2023-12-20T12:46:14;8.30;99.90
5218;DHT22;26539;51.064;6.346;2023-12-20T12:48:40;8.30;99.90
5218;DHT22;26539;51.064;6.346;2023-12-20T12:51:05;8.30;99.90
5218;DHT22;26539;51.064;6.346;2023-12-20T12:53:32;8.40;99.90
5218;DHT22;26539;51.064;6.346;2023-12-20T12:55:57;8.40;99.90
5218;DHT22;26539;51.064;6.346;2023-12-20T12:58:23;8.50;99.90
5218;DHT22;26539;51.064;6.346;2023-12-20T13:00:50;8.60;99.90
5218;DHT22;26539;51.064;6.346;2023-12-20T13:03:16;8.60;99.90
5218;DHT22;26539;51.064;6.346;2023-12-20T13:05:42;8.70;99.90
5218;DHT22;26539;51.064;6.346;2023-12-20T13:08:07;8.70;99.90
5218;DHT22;26539;51.064;6.346;2023-12-20T13:10:33;8.70;99.90
5218;DHT22;26539;51.064;6.346;2023-12-20T13:12:58;8.70;99.90
5218;DHT22;26539;51.064;6.346;2023-12-20T13:15:24;8.80;99.90
5218;DHT22;26539;51.064;6.346;2023-12-20T13:17:49;8.90;99.90
5218;DHT22;26539;51.064;6.346;2023-12-20T13:20:16;8.90;99.90
5218;DHT22;26539;51.064;6.346;2023-12-20T13:22:41;8.90;99.90
5218;DHT22;26539;51.064;6.346;2023-12-20T13:25:07;8.80;99.90
5218;DHT22;26539;51.064;6.346;2023-12-20T13:27:33;8.80;99.90
5218;DHT22;26539;51.064;6.346;2023-12-20T13:29:58;8.70;99.90
5218;DHT22;26539;51.064;6.346;2023-12-20T13:32:24;8.60;99.90
5218;DHT22;26539;51.064;6.346;2023-12-20T13:34:49;8.60;1.00
5218;DHT22;26539;51.064;6.346;2023-12-20T13:37:15;8.60;1.00
5218;DHT22;26539;51.064;6.346;2023-12-20T13:39:41;8.50;1.00
5218;DHT22;26539;51.064;6.346;2023-12-20T13:42:07;8.50;1.00
5218;DHT22;26539;51.064;6.346;2023-12-20T13:44:32;8.50;1.00
5218;DHT22;26539;51.064;6.346;2023-12-20T13:46:58;8.50;1.00
5218;DHT22;26539;51.064;6.346;2023-12-20T13:49:23;8.50;1.00
5218;DHT22;26539;51.064;6.346;2023-12-20T13:51:51;8.50;1.00
5218;DHT22;26539;51.064;6.346;2023-12-20T13:54:16;8.50;1.00
5218;DHT22;26539;51.064;6.346;2023-12-20T13:56:45;8.50;1.00
5218;DHT22;26539;51.064;6.346;2023-12-20T13:59:10;8.60;1.00
5218;DHT22;26539;51.064;6.346;2023-12-20T14:01:38;8.60;1.00
5218;DHT22;26539;51.064;6.346;2023-12-20T14:04:03;8.70;1.00
5218;DHT22;26539;51.064;6.346;2023-12-20T14:06:29;8.80;1.00
5218;DHT22;26539;51.064;6.346;2023-12-20T14:08:55;8.80;1.00
5218;DHT22;26539;51.064;6.346;2023-12-20T14:11:20;8.80;1.00
5218;DHT22;26539;51.064;6.346;2023-12-20T14:13:46;8.80;1.00
5218;DHT22;26539;51.064;6.346;2023-12-20T14:16:11;8.90;1.00
5218;DHT22;26539;51.064;6.346;2023-12-20T14:18:38;8.90;1.00
5218;DHT22;26539;51.064;6.346;2023-12-20T14:21:05;9.00;1.00
5218;DHT22;26539;51.064;6.346;2023-12-20T14:23:31;9.00;1.00
5218;DHT22;26539;51.064;6.346;2023-12-20T14:25:59;8.90;1.00
5218;DHT22;26539;51.064;6.346;2023-12-20T14:28:25;8.90;1.00
5218;DHT22;26539;51.064;6.346;2023-12-20T14:30:50;8.90;1.00
5218;DHT22;26539;51.064;6.346;2023-12-20T14:33:16;8.80;1.00
5218;DHT22;26539;51.064;6.346;2023-12-20T14:35:41;8.80;1.00
5218;DHT22;26539;51.064;6.346;2023-12-20T14:38:09;8.70;1.00
5218;DHT22;26539;51.064;6.346;2023-12-20T14:40:34;8.70;1.00
5218;DHT22;26539;51.064;6.346;2023-12-20T14:43:00;8.70;1.00
5218;DHT22;26539;51.064;6.346;2023-12-20T14:45:26;8.60;1.00
5218;DHT22;26539;51.064;6.346;2023-12-20T14:47:52;8.60;1.00
5218;DHT22;26539;51.064;6.346;2023-12-20T14:50:18;8.60;1.00
5218;DHT22;26539;51.064;6.346;2023-12-20T14:52:44;8.60;1.00
5218;DHT22;26539;51.064;6.346;2023-12-20T14:55:10;8.60;1.00
5218;DHT22;26539;51.064;6.346;2023-12-20T14:57:36;8.60;1.00
5218;DHT22;26539;51.064;6.346;2023-12-20T15:00:02;8.60;1.00
5218;DHT22;26539;51.064;6.346;2023-12-20T15:02:27;8.60;1.00
5218;DHT22;26539;51.064;6.346;2023-12-20T15:04:53;8.60;1.00
5218;DHT22;26539;51.064;6.346;2023-12-20T15:07:19;8.60;1.00
5218;DHT22;26539;51.064;6.346;2023-12-20T15:09:44;8.60;1.00
5218;DHT22;26539;51.064;6.346;2023-12-20T15:12:11;8.50;1.00
5218;DHT22;26539;51.064;6.346;2023-12-20T15:14:37;8.50;1.00
5218;DHT22;26539;51.064;6.346;2023-12-20T15:17:03;8.50;1.00
5218;DHT22;26539;51.064;6.346;2023-12-20T15:19:30;8.50;1.00
5218;DHT22;26539;51.064;6.346;2023-12-20T15:21:56;8.50;1.00
5218;DHT22;26539;51.064;6.346;2023-12-20T15:24:21;8.50;1.00
5218;DHT22;26539;51.064;6.346;2023-12-20T15:26:54;8.50;1.00
5218;DHT22;26539;51.064;6.346;2023-12-20T15:29:20;8.50;1.00
5218;DHT22;26539;51.064;6.346;2023-12-20T15:31:46;8.50;1.00
5218;DHT22;26539;51.064;6.346;2023-12-20T15:34:12;8.50;1.00
5218;DHT22;26539;51.064;6.346;2023-12-20T15:36:39;8.50;1.00
5218;DHT22;26539;51.064;6.346;2023-12-20T15:39:05;8.50;1.00
5218;DHT22;26539;51.064;6.346;2023-12-20T15:41:31;8.50;1.00
5218;DHT22;26539;51.064;6.346;2023-12-20T15:43:56;8.50;1.00
5218;DHT22;26539;51.064;6.346;2023-12-20T15:46:22;8.50;1.00
5218;DHT22;26539;51.064;6.346;2023-12-20T15:48:47;8.50;1.00
5218;DHT22;26539;51.064;6.346;2023-12-20T15:51:14;8.50;1.00
5218;DHT22;26539;51.064;6.346;2023-12-20T15:53:41;8.40;1.00
5218;DHT22;26539;51.064;6.346;2023-12-20T15:56:07;8.40;1.00
5218;DHT22;26539;51.064;6.346;2023-12-20T15:58:33;8.40;1.00
5218;DHT22;26539;51.064;6.346;2023-12-20T16:01:01;8.30;1.00
5218;DHT22;26539;51.064;6.346;2023-12-20T16:03:26;8.30;1.00
5218;DHT22;26539;51.064;6.346;2023-12-20T16:05:53;8.20;1.00
5218;DHT22;26539;51.064;6.346;2023-12-20T16:08:19;8.20;1.00
5218;DHT22;26539;51.064;6.346;2023-12-20T16:10:44;8.20;1.00
5218;DHT22;26539;51.064;6.346;2023-12-20T16:13:10;8.20;1.00
5218;DHT22;26539;51.064;6.346;2023-12-20T16:15:35;8.20;1.00
5218;DHT22;26539;51.064;6.346;2023-12-20T16:18:01;8.20;1.00